createdAt,value
2022-11-20T00:00:00.403Z,83.21
2022-11-20T00:01:02.422Z,82.92
2022-11-20T00:01:42.456Z,83.23
2022-11-20T00:02:22.443Z,82.65
2022-11-20T00:03:02.340Z,83.14
2022-11-20T00:03:49.373Z,83.03
2022-11-20T00:04:43.351Z,82.76
2022-11-20T00:05:37.384Z,83.39
2022-11-20T00:06:33.409Z,83.10
2022-11-20T00:07:27.387Z,83.19
2022-11-20T00:08:21.370Z,83.34
2022-11-20T00:09:09.379Z,83.21
2022-11-20T00:09:43.452Z,83.13
2022-11-20T00:10:30.375Z,83.61
2022-11-20T00:11:04.452Z,83.66
2022-11-20T00:11:51.356Z,83.92
2022-11-20T00:12:25.415Z,83.48
2022-11-20T00:13:12.385Z,83.58
2022-11-20T00:13:46.437Z,83.48
2022-11-20T00:14:33.393Z,83.67
2022-11-20T00:15:07.376Z,83.92
2022-11-20T00:15:54.367Z,83.50
2022-11-20T00:16:31.603Z,83.25
2022-11-20T00:17:18.318Z,83.14
2022-11-20T00:17:52.404Z,83.26
2022-11-20T00:18:41.386Z,83.60
2022-11-20T00:19:16.421Z,83.65
2022-11-20T00:19:56.412Z,83.90
2022-11-20T00:20:37.367Z,83.75
2022-11-20T00:21:27.372Z,83.22
2022-11-20T00:22:07.380Z,83.91
2022-11-20T00:22:47.360Z,83.34
2022-11-20T00:23:27.361Z,83.47
2022-11-20T00:24:08.359Z,83.39
2022-11-20T00:24:49.431Z,83.42
2022-11-20T00:25:30.342Z,82.99
2022-11-20T00:26:15.444Z,83.19
2022-11-20T00:26:56.375Z,83.12
2022-11-20T00:27:36.719Z,82.79
2022-11-20T00:28:17.448Z,82.41
2022-11-20T00:29:01.551Z,82.89
2022-11-20T00:29:41.346Z,82.64
2022-11-20T00:30:21.388Z,82.33
2022-11-20T00:31:09.365Z,82.44
2022-11-20T00:31:49.445Z,82.45
2022-11-20T00:32:32.363Z,82.03
2022-11-20T00:33:13.456Z,82.23
2022-11-20T00:33:54.345Z,82.51
2022-11-20T00:34:34.371Z,82.61
2022-11-20T00:35:15.286Z,82.20
2022-11-20T00:35:55.385Z,82.32
2022-11-20T00:36:39.331Z,82.50
2022-11-20T00:37:19.337Z,82.36
2022-11-20T00:38:00.317Z,82.38
2022-11-20T00:38:40.442Z,82.46
2022-11-20T00:39:20.556Z,82.42
2022-11-20T00:40:01.399Z,82.88
2022-11-20T00:40:41.319Z,82.72
2022-11-20T00:41:23.457Z,82.82
2022-11-20T00:42:04.335Z,82.46
2022-11-20T00:42:45.351Z,82.29
2022-11-20T00:43:25.303Z,83.02
2022-11-20T00:44:05.475Z,82.57
2022-11-20T00:44:45.331Z,82.93
2022-11-20T00:45:25.398Z,82.78
2022-11-20T00:46:17.342Z,82.79
2022-11-20T00:46:57.434Z,82.74
2022-11-20T00:47:38.345Z,82.95
2022-11-20T00:48:18.413Z,83.40
2022-11-20T00:48:59.311Z,83.43
2022-11-20T00:49:39.417Z,82.71
2022-11-20T00:50:19.276Z,83.29
2022-11-20T00:51:00.442Z,82.98
2022-11-20T00:51:40.299Z,82.95
2022-11-20T00:52:23.415Z,83.14
2022-11-20T00:53:03.317Z,82.99
2022-11-20T00:53:43.342Z,82.91
2022-11-20T00:54:23.299Z,82.97
2022-11-20T00:55:04.387Z,82.89
2022-11-20T00:55:44.295Z,83.01
2022-11-20T00:56:26.300Z,82.91
2022-11-20T00:57:07.274Z,83.22
2022-11-20T00:57:47.431Z,83.11
2022-11-20T00:58:28.350Z,83.30
2022-11-20T00:59:09.365Z,83.02
2022-11-20T00:59:49.309Z,83.53
2022-11-20T01:00:29.526Z,83.01
2022-11-20T01:01:19.386Z,83.54
2022-11-20T01:02:13.284Z,83.48
2022-11-20T01:03:07.314Z,83.28
2022-11-20T01:03:50.343Z,83.61
2022-11-20T01:04:31.466Z,83.71
2022-11-20T01:05:12.315Z,83.94
2022-11-20T01:05:52.319Z,84.02
2022-11-20T01:06:40.291Z,83.92
2022-11-20T01:07:22.386Z,83.66
2022-11-20T01:08:02.307Z,83.41
2022-11-20T01:08:43.535Z,83.44
2022-11-20T01:09:24.402Z,83.05
2022-11-20T01:10:04.380Z,83.21
2022-11-20T01:10:44.289Z,83.52
2022-11-20T01:11:36.389Z,83.65
2022-11-20T01:12:17.301Z,83.81
2022-11-20T01:13:15.896Z,83.27
2022-11-20T01:13:59.260Z,83.80
2022-11-20T01:14:39.322Z,83.83
2022-11-20T01:15:13.310Z,83.95
2022-11-20T01:16:00.301Z,84.07
2022-11-20T01:16:40.359Z,83.52
2022-11-20T01:17:27.324Z,83.62
2022-11-20T01:18:01.316Z,83.96
2022-11-20T01:18:51.304Z,83.62
2022-11-20T01:19:29.379Z,83.83
2022-11-20T01:20:10.303Z,83.48
2022-11-20T01:20:50.269Z,83.58
2022-11-20T01:21:35.296Z,83.98
2022-11-20T01:22:16.354Z,83.76
2022-11-20T01:22:56.297Z,84.01
2022-11-20T01:23:41.341Z,84.10
2022-11-20T01:24:24.252Z,84.08
2022-11-20T01:25:04.494Z,83.95
2022-11-20T01:25:45.293Z,84.11
2022-11-20T01:26:32.392Z,84.45
2022-11-20T01:27:13.261Z,84.36
2022-11-20T01:27:53.330Z,84.09
2022-11-20T01:28:33.280Z,83.89
2022-11-20T01:29:16.417Z,83.99
2022-11-20T01:30:00.986Z,84.05
2022-11-20T01:30:41.427Z,84.28
2022-11-20T01:31:26.364Z,83.76
2022-11-20T01:32:06.319Z,83.89
2022-11-20T01:32:47.269Z,84.03
2022-11-20T01:33:27.287Z,84.23
2022-11-20T01:34:11.288Z,83.98
2022-11-20T01:34:51.290Z,84.08
2022-11-20T01:35:31.240Z,83.89
2022-11-20T01:36:15.659Z,84.49
2022-11-20T01:36:56.290Z,84.17
2022-11-20T01:37:37.333Z,84.24
2022-11-20T01:38:17.264Z,84.17
2022-11-20T01:39:02.412Z,84.38
2022-11-20T01:39:43.241Z,84.83
2022-11-20T01:40:23.338Z,84.63
2022-11-20T01:41:04.244Z,84.45
2022-11-20T01:42:10.348Z,84.39
2022-11-20T01:43:31.278Z,84.48
2022-11-20T01:44:28.316Z,84.54
2022-11-20T01:46:14.223Z,83.96
2022-11-20T01:47:18.245Z,84.27
2022-11-20T01:48:12.234Z,84.14
2022-11-20T01:49:16.262Z,84.50
2022-11-20T01:50:31.263Z,84.11
2022-11-20T01:51:48.260Z,84.97
2022-11-20T01:53:13.275Z,84.49
2022-11-20T01:53:47.267Z,84.70
2022-11-20T01:55:07.194Z,85.36
2022-11-20T01:56:03.332Z,85.11
2022-11-20T01:56:53.250Z,84.86
2022-11-20T01:57:27.259Z,84.55
2022-11-20T01:58:15.230Z,84.79
2022-11-20T01:58:56.273Z,85.28
2022-11-20T01:59:51.239Z,85.16
2022-11-20T02:00:27.318Z,85.45
2022-11-20T02:01:14.238Z,85.36
2022-11-20T02:01:48.491Z,85.13
2022-11-20T02:02:35.253Z,85.28
2022-11-20T02:03:30.265Z,85.38
2022-11-20T02:04:25.252Z,85.24
2022-11-20T02:05:50.204Z,85.14
2022-11-20T02:06:59.263Z,85.89
2022-11-20T02:07:53.204Z,85.41
2022-11-20T02:08:48.237Z,85.16
2022-11-20T02:09:43.231Z,85.72
2022-11-20T02:10:38.243Z,85.36
2022-11-20T02:11:32.199Z,85.15
2022-11-20T02:12:44.235Z,84.93
2022-11-20T02:13:53.246Z,84.67
2022-11-20T02:14:47.199Z,84.80
2022-11-20T02:15:41.245Z,84.92
2022-11-20T02:16:42.216Z,84.27
2022-11-20T02:17:36.191Z,84.41
2022-11-20T02:18:33.231Z,84.55
2022-11-20T02:19:21.463Z,85.16
2022-11-20T02:20:02.235Z,85.19
2022-11-20T02:20:43.241Z,84.83
2022-11-20T02:21:49.297Z,85.20
2022-11-20T02:22:41.224Z,85.87
2022-11-20T02:23:47.781Z,85.16
2022-11-20T02:24:30.283Z,85.23
2022-11-20T02:25:13.418Z,85.11
2022-11-20T02:25:55.243Z,85.35
2022-11-20T02:26:40.394Z,84.85
2022-11-20T02:27:22.195Z,84.76
2022-11-20T02:28:02.242Z,85.31
2022-11-20T02:28:42.200Z,85.38
2022-11-20T02:29:26.307Z,85.19
2022-11-20T02:30:15.214Z,84.55
2022-11-20T02:30:55.292Z,84.79
2022-11-20T02:31:36.180Z,84.61
2022-11-20T02:32:39.240Z,84.76
2022-11-20T02:33:20.164Z,85.26
2022-11-20T02:34:05.466Z,85.07
2022-11-20T02:34:46.198Z,85.09
2022-11-20T02:35:33.249Z,85.26
2022-11-20T02:36:30.176Z,84.95
2022-11-20T02:37:24.257Z,85.42
2022-11-20T02:38:18.244Z,85.18
2022-11-20T02:39:12.201Z,85.46
2022-11-20T02:40:07.201Z,85.31
2022-11-20T02:40:55.746Z,85.55
2022-11-20T02:41:42.308Z,85.95
2022-11-20T02:42:29.196Z,85.30
2022-11-20T02:43:04.608Z,85.60
2022-11-20T02:43:52.184Z,85.55
2022-11-20T02:44:26.334Z,85.80
2022-11-20T02:45:15.175Z,85.67
2022-11-20T02:45:49.260Z,85.59
2022-11-20T02:46:29.191Z,85.20
2022-11-20T02:47:09.403Z,85.44
2022-11-20T02:47:49.161Z,84.95
2022-11-20T02:48:43.183Z,85.40
2022-11-20T02:49:37.151Z,85.63
2022-11-20T02:50:31.166Z,85.75
2022-11-20T02:51:25.199Z,85.83
2022-11-20T02:52:05.191Z,85.74
2022-11-20T02:52:45.196Z,86.30
2022-11-20T02:53:26.136Z,86.38
2022-11-20T02:54:06.220Z,86.33
2022-11-20T02:54:46.160Z,86.27
2022-11-20T02:55:26.269Z,86.27
2022-11-20T02:56:06.139Z,86.52
2022-11-20T02:56:47.201Z,86.43
2022-11-20T02:57:27.207Z,86.55
2022-11-20T02:58:07.180Z,86.19
2022-11-20T02:58:47.139Z,86.35
2022-11-20T02:59:27.220Z,86.58
2022-11-20T03:00:07.134Z,86.67
2022-11-20T03:00:47.254Z,86.37
2022-11-20T03:01:27.250Z,86.54
2022-11-20T03:02:07.289Z,86.43
2022-11-20T03:02:48.185Z,86.40
2022-11-20T03:03:28.356Z,86.95
2022-11-20T03:04:09.166Z,86.40
2022-11-20T03:04:49.173Z,86.67
2022-11-20T03:05:29.112Z,86.81
2022-11-20T03:06:09.179Z,87.24
2022-11-20T03:06:49.148Z,86.73
2022-11-20T03:07:29.226Z,87.44
2022-11-20T03:08:09.204Z,87.50
2022-11-20T03:08:50.176Z,87.34
2022-11-20T03:09:30.143Z,87.60
2022-11-20T03:10:12.189Z,87.85
2022-11-20T03:10:53.148Z,86.92
2022-11-20T03:11:34.378Z,86.86
2022-11-20T03:12:15.116Z,87.02
2022-11-20T03:12:56.217Z,87.49
2022-11-20T03:13:37.137Z,86.99
2022-11-20T03:14:17.168Z,87.31
2022-11-20T03:14:57.149Z,87.08
2022-11-20T03:15:37.424Z,86.69
2022-11-20T03:16:21.123Z,86.80
2022-11-20T03:17:01.188Z,87.01
2022-11-20T03:17:41.123Z,86.67
2022-11-20T03:18:21.184Z,87.08
2022-11-20T03:19:01.138Z,86.71
2022-11-20T03:19:41.180Z,87.36
2022-11-20T03:20:22.132Z,87.36
2022-11-20T03:21:06.240Z,87.52
2022-11-20T03:21:47.132Z,87.43
2022-11-20T03:22:27.160Z,87.25
2022-11-20T03:23:08.143Z,86.79
2022-11-20T03:23:49.154Z,86.65
2022-11-20T03:24:29.141Z,86.83
2022-11-20T03:25:09.153Z,87.15
2022-11-20T03:25:49.127Z,87.23
2022-11-20T03:26:33.204Z,86.68
2022-11-20T03:27:13.145Z,86.77
2022-11-20T03:27:53.185Z,87.07
2022-11-20T03:28:33.116Z,86.75
2022-11-20T03:29:13.160Z,86.55
2022-11-20T03:29:53.132Z,86.45
2022-11-20T03:30:33.435Z,86.55
2022-11-20T03:31:20.105Z,86.46
2022-11-20T03:32:00.143Z,86.57
2022-11-20T03:32:40.104Z,86.80
2022-11-20T03:33:20.129Z,86.56
2022-11-20T03:34:00.108Z,86.54
2022-11-20T03:34:40.183Z,86.78
2022-11-20T03:35:20.132Z,86.88
2022-11-20T03:36:00.156Z,86.60
2022-11-20T03:36:40.115Z,86.56
2022-11-20T03:37:20.386Z,86.73
2022-11-20T03:38:00.109Z,86.67
2022-11-20T03:38:41.140Z,86.41
2022-11-20T03:39:21.456Z,86.93
2022-11-20T03:40:02.149Z,86.99
2022-11-20T03:40:43.155Z,86.83
2022-11-20T03:41:27.243Z,86.63
2022-11-20T03:42:07.091Z,86.41
2022-11-20T03:42:47.212Z,86.95
2022-11-20T03:43:27.103Z,86.89
2022-11-20T03:44:10.180Z,86.85
2022-11-20T03:44:50.103Z,86.93
2022-11-20T03:45:30.122Z,86.48
2022-11-20T03:46:11.109Z,86.72
2022-11-20T03:46:51.204Z,86.45
2022-11-20T03:47:31.103Z,86.93
2022-11-20T03:48:25.093Z,86.86
2022-11-20T03:49:20.359Z,86.61
2022-11-20T03:50:14.093Z,86.91
2022-11-20T03:51:28.120Z,87.19
2022-11-20T03:52:22.066Z,86.83
2022-11-20T03:53:16.099Z,86.49
2022-11-20T03:54:13.083Z,86.82
2022-11-20T03:55:07.087Z,86.75
2022-11-20T03:56:06.091Z,86.31
2022-11-20T03:56:53.089Z,86.70
2022-11-20T03:57:27.365Z,86.21
2022-11-20T03:58:14.058Z,86.76
2022-11-20T03:58:48.112Z,86.41
2022-11-20T03:59:35.107Z,86.96
2022-11-20T04:00:10.167Z,86.30
2022-11-20T04:00:57.101Z,86.51
2022-11-20T04:01:44.197Z,86.41
2022-11-20T04:02:27.105Z,86.67
2022-11-20T04:03:09.107Z,86.28
2022-11-20T04:03:51.077Z,86.62
2022-11-20T04:04:31.107Z,86.13
2022-11-20T04:05:12.053Z,86.44
2022-11-20T04:05:52.147Z,86.00
2022-11-20T04:06:41.083Z,86.10
2022-11-20T04:07:21.147Z,86.20
2022-11-20T04:08:01.108Z,86.37
2022-11-20T04:08:41.093Z,85.92
2022-11-20T04:09:22.168Z,86.45
2022-11-20T04:10:02.105Z,86.41
2022-11-20T04:10:42.075Z,86.00
2022-11-20T04:11:26.100Z,86.05
2022-11-20T04:12:06.048Z,86.22
2022-11-20T04:12:46.124Z,85.87
2022-11-20T04:13:26.105Z,85.75
2022-11-20T04:14:10.134Z,85.99
2022-11-20T04:14:51.066Z,85.58
2022-11-20T04:15:34.369Z,85.64
2022-11-20T04:16:18.038Z,85.64
2022-11-20T04:16:58.092Z,85.61
2022-11-20T04:17:38.043Z,85.52
2022-11-20T04:18:18.102Z,85.43
2022-11-20T04:19:03.095Z,85.56
2022-11-20T04:19:43.126Z,85.33
2022-11-20T04:20:23.083Z,85.24
2022-11-20T04:21:05.106Z,85.41
2022-11-20T04:21:45.077Z,85.53
2022-11-20T04:22:25.124Z,85.46
2022-11-20T04:23:05.034Z,85.70
2022-11-20T04:23:45.111Z,85.67
2022-11-20T04:24:26.072Z,85.39
2022-11-20T04:25:06.052Z,85.16
2022-11-20T04:25:46.084Z,85.13
2022-11-20T04:26:28.218Z,85.42
2022-11-20T04:27:09.082Z,84.86
2022-11-20T04:27:50.127Z,85.59
2022-11-20T04:28:30.065Z,85.47
2022-11-20T04:29:10.084Z,85.36
2022-11-20T04:29:50.038Z,85.55
2022-11-20T04:30:30.105Z,85.83
2022-11-20T04:31:12.034Z,85.74
2022-11-20T04:31:52.063Z,85.88
2022-11-20T04:32:32.036Z,85.42
2022-11-20T04:33:12.067Z,85.20
2022-11-20T04:33:53.023Z,85.49
2022-11-20T04:34:33.113Z,85.22
2022-11-20T04:35:14.059Z,85.40
2022-11-20T04:35:55.042Z,85.31
2022-11-20T04:36:38.056Z,85.18
2022-11-20T04:37:18.108Z,84.79
2022-11-20T04:38:02.059Z,85.04
2022-11-20T04:38:42.283Z,85.24
2022-11-20T04:39:23.314Z,84.70
2022-11-20T04:40:05.169Z,84.86
2022-11-20T04:40:45.063Z,84.79
2022-11-20T04:41:28.345Z,84.76
2022-11-20T04:42:27.041Z,84.74
2022-11-20T04:43:07.072Z,84.91
2022-11-20T04:43:47.046Z,84.92
2022-11-20T04:44:27.072Z,84.97
2022-11-20T04:45:07.040Z,84.60
2022-11-20T04:45:54.052Z,84.65
2022-11-20T04:46:53.043Z,85.06
2022-11-20T04:47:47.044Z,84.45
2022-11-20T04:48:43.069Z,84.58
2022-11-20T04:49:39.054Z,84.83
2022-11-20T04:50:33.014Z,84.98
2022-11-20T04:51:14.017Z,84.75
2022-11-20T04:51:54.240Z,84.92
2022-11-20T04:52:35.035Z,84.74
2022-11-20T04:53:15.071Z,84.56
2022-11-20T04:53:56.027Z,84.85
2022-11-20T04:54:36.059Z,84.46
2022-11-20T04:55:16.039Z,84.65
2022-11-20T04:55:56.066Z,84.26
2022-11-20T04:56:36.005Z,84.05
2022-11-20T04:57:16.412Z,84.14
2022-11-20T04:57:59.003Z,84.32
2022-11-20T04:58:39.080Z,83.62
2022-11-20T04:59:19.265Z,83.93
2022-11-20T05:00:00.087Z,83.86
2022-11-20T05:00:41.041Z,83.82
2022-11-20T05:01:25.121Z,83.62
2022-11-20T05:02:06.048Z,84.10
2022-11-20T05:02:46.032Z,84.04
2022-11-20T05:03:25.989Z,83.68
2022-11-20T05:04:06.666Z,84.11
2022-11-20T05:04:47.034Z,83.75
2022-11-20T05:05:27.068Z,84.20
2022-11-20T05:06:13.022Z,83.62
2022-11-20T05:06:53.072Z,83.58
2022-11-20T05:07:33.144Z,83.95
2022-11-20T05:08:13.063Z,84.06
2022-11-20T05:08:53.020Z,83.99
2022-11-20T05:09:33.108Z,83.89
2022-11-20T05:10:13.974Z,83.47
2022-11-20T05:10:54.044Z,83.76
2022-11-20T05:11:36.018Z,83.59
2022-11-20T05:12:17.093Z,83.65
2022-11-20T05:12:57.027Z,83.46
2022-11-20T05:13:37.023Z,83.46
2022-11-20T05:14:16.977Z,83.10
2022-11-20T05:14:57.031Z,83.62
2022-11-20T05:15:37.008Z,83.60
2022-11-20T05:16:26.076Z,83.22
2022-11-20T05:17:05.969Z,83.35
2022-11-20T05:17:46.035Z,83.21
2022-11-20T05:18:26.003Z,83.16
2022-11-20T05:19:06.083Z,83.44
2022-11-20T05:19:49.357Z,83.48
2022-11-20T05:20:32.047Z,83.32
2022-11-20T05:21:12.989Z,83.25
2022-11-20T05:21:53.034Z,83.68
2022-11-20T05:22:33.987Z,83.41
2022-11-20T05:23:14.059Z,83.27
2022-11-20T05:23:54.999Z,83.17
2022-11-20T05:24:35.022Z,83.50
2022-11-20T05:25:14.983Z,83.69
2022-11-20T05:25:58.827Z,83.42
2022-11-20T05:26:38.989Z,83.02
2022-11-20T05:27:19.033Z,83.02
2022-11-20T05:27:58.961Z,83.22
2022-11-20T05:28:40.035Z,83.39
2022-11-20T05:29:21.309Z,83.34
2022-11-20T05:30:02.040Z,83.87
2022-11-20T05:30:42.992Z,83.46
2022-11-20T05:31:29.067Z,83.88
2022-11-20T05:32:10.005Z,83.46
2022-11-20T05:32:50.014Z,83.38
2022-11-20T05:33:29.975Z,83.48
2022-11-20T05:34:10.108Z,83.54
2022-11-20T05:34:50.160Z,83.72
2022-11-20T05:35:30.992Z,83.76
2022-11-20T05:36:12.964Z,84.00
2022-11-20T05:36:53.097Z,83.96
2022-11-20T05:37:33.954Z,83.54
2022-11-20T05:38:14.136Z,83.54
2022-11-20T05:38:59.752Z,83.80
2022-11-20T05:39:41.007Z,83.71
2022-11-20T05:40:21.980Z,83.90
2022-11-20T05:41:02.025Z,83.91
2022-11-20T05:41:41.939Z,84.01
2022-11-20T05:42:34.188Z,83.71
2022-11-20T05:43:15.027Z,83.61
2022-11-20T05:43:57.044Z,83.85
2022-11-20T05:44:36.980Z,84.12
2022-11-20T05:45:17.027Z,83.82
2022-11-20T05:46:02.059Z,84.16
2022-11-20T05:46:45.024Z,84.29
2022-11-20T05:47:27.980Z,84.43
2022-11-20T05:48:09.045Z,84.00
2022-11-20T05:48:50.939Z,83.81
2022-11-20T05:49:30.971Z,83.72
2022-11-20T05:50:11.961Z,83.96
2022-11-20T05:50:52.040Z,83.66
2022-11-20T05:51:33.025Z,83.66
2022-11-20T05:52:12.976Z,83.70
2022-11-20T05:52:52.970Z,83.74
2022-11-20T05:53:34.156Z,84.24
2022-11-20T05:54:13.953Z,83.66
2022-11-20T05:54:53.983Z,83.83
2022-11-20T05:55:34.922Z,83.33
2022-11-20T05:56:22.227Z,83.64
2022-11-20T05:57:01.974Z,83.67
2022-11-20T05:57:43.203Z,83.88
2022-11-20T05:58:22.946Z,83.86
2022-11-20T05:59:03.996Z,84.26
2022-11-20T05:59:44.966Z,83.67
2022-11-20T06:00:24.966Z,83.80
2022-11-20T06:01:25.952Z,83.95
2022-11-20T06:02:13.037Z,83.89
2022-11-20T06:03:06.936Z,84.13
2022-11-20T06:04:01.951Z,84.04
2022-11-20T06:04:55.948Z,84.39
2022-11-20T06:05:49.933Z,84.28
2022-11-20T06:06:43.936Z,83.54
2022-11-20T06:07:30.969Z,84.44
2022-11-20T06:08:04.970Z,84.53
2022-11-20T06:08:51.926Z,84.63
2022-11-20T06:09:25.967Z,84.47
2022-11-20T06:10:12.944Z,84.33
2022-11-20T06:10:47.995Z,84.30
2022-11-20T06:11:34.916Z,84.40
2022-11-20T06:12:09.043Z,84.04
2022-11-20T06:12:55.944Z,83.96
2022-11-20T06:13:29.965Z,84.16
2022-11-20T06:14:16.899Z,84.66
2022-11-20T06:14:50.979Z,84.47
2022-11-20T06:15:37.908Z,84.44
2022-11-20T06:16:12.018Z,84.63
2022-11-20T06:16:58.932Z,84.77
2022-11-20T06:17:32.951Z,84.50
2022-11-20T06:18:19.940Z,84.59
2022-11-20T06:18:53.981Z,84.79
2022-11-20T06:19:40.911Z,84.25
2022-11-20T06:20:16.009Z,84.25
2022-11-20T06:21:28.912Z,84.36
2022-11-20T06:22:02.968Z,84.37
2022-11-20T06:22:49.955Z,84.43
2022-11-20T06:23:30.968Z,84.24
2022-11-20T06:24:25.942Z,84.15
2022-11-20T06:25:19.927Z,84.60
2022-11-20T06:26:29.917Z,84.41
2022-11-20T06:27:23.902Z,84.58
2022-11-20T06:28:17.878Z,84.59
2022-11-20T06:29:00.911Z,84.54
2022-11-20T06:29:40.963Z,84.23
2022-11-20T06:30:21.922Z,84.51
2022-11-20T06:31:02.029Z,84.35
2022-11-20T06:31:42.899Z,84.60
2022-11-20T06:32:22.961Z,84.98
2022-11-20T06:33:02.927Z,84.83
2022-11-20T06:33:42.931Z,84.84
2022-11-20T06:34:22.913Z,84.81
2022-11-20T06:35:02.935Z,84.89
2022-11-20T06:35:42.893Z,84.69
2022-11-20T06:36:25.225Z,85.08
2022-11-20T06:37:04.932Z,84.98
2022-11-20T06:37:44.952Z,84.79
2022-11-20T06:38:25.883Z,84.75
2022-11-20T06:39:07.172Z,84.49
2022-11-20T06:39:46.925Z,84.35
2022-11-20T06:40:26.966Z,84.29
2022-11-20T06:41:06.873Z,84.51
2022-11-20T06:41:46.948Z,84.48
2022-11-20T06:42:26.904Z,84.67
2022-11-20T06:43:06.926Z,84.53
2022-11-20T06:43:47.882Z,84.55
2022-11-20T06:44:28.035Z,84.61
2022-11-20T06:45:07.929Z,84.53
2022-11-20T06:45:47.939Z,84.76
2022-11-20T06:46:28.894Z,84.39
2022-11-20T06:47:09.081Z,84.69
2022-11-20T06:47:49.883Z,84.45
2022-11-20T06:48:31.923Z,84.21
2022-11-20T06:49:11.932Z,84.34
2022-11-20T06:49:51.968Z,84.22
2022-11-20T06:50:31.962Z,84.38
2022-11-20T06:51:14.000Z,84.48
2022-11-20T06:51:53.892Z,84.07
2022-11-20T06:52:33.909Z,84.02
2022-11-20T06:53:13.888Z,84.40
2022-11-20T06:53:53.923Z,83.90
2022-11-20T06:54:33.879Z,83.85
2022-11-20T06:55:14.922Z,83.49
2022-11-20T06:55:55.944Z,83.56
2022-11-20T06:56:35.991Z,83.86
2022-11-20T06:57:16.871Z,83.87
2022-11-20T06:57:57.945Z,83.40
2022-11-20T06:58:39.882Z,83.60
2022-11-20T06:59:20.293Z,83.41
2022-11-20T07:00:00.869Z,83.17
2022-11-20T07:00:41.210Z,82.73
2022-11-20T07:01:22.924Z,83.23
2022-11-20T07:02:03.291Z,83.35
2022-11-20T07:02:42.888Z,83.13
2022-11-20T07:03:22.910Z,83.51
2022-11-20T07:04:02.890Z,82.83
2022-11-20T07:04:42.920Z,82.88
2022-11-20T07:05:23.853Z,83.11
2022-11-20T07:06:05.191Z,83.12
2022-11-20T07:06:45.890Z,82.71
2022-11-20T07:07:26.086Z,83.06
2022-11-20T07:08:06.852Z,83.08
2022-11-20T07:09:00.891Z,82.92
2022-11-20T07:09:54.879Z,82.83
2022-11-20T07:10:49.861Z,82.98
2022-11-20T07:11:43.881Z,83.06
2022-11-20T07:12:24.844Z,83.10
2022-11-20T07:13:04.896Z,82.96
2022-11-20T07:13:44.861Z,82.87
2022-11-20T07:14:24.963Z,82.71
2022-11-20T07:15:04.857Z,83.19
2022-11-20T07:15:44.941Z,83.26
2022-11-20T07:16:25.901Z,82.95
2022-11-20T07:17:05.888Z,82.73
2022-11-20T07:17:39.918Z,82.94
2022-11-20T07:18:26.861Z,82.88
2022-11-20T07:19:00.928Z,82.95
2022-11-20T07:19:47.824Z,83.09
2022-11-20T07:20:22.199Z,82.98
2022-11-20T07:21:10.835Z,83.12
2022-11-20T07:21:44.953Z,82.93
2022-11-20T07:22:24.879Z,82.83
2022-11-20T07:23:05.896Z,83.07
2022-11-20T07:23:45.854Z,82.83
2022-11-20T07:24:25.932Z,82.93
2022-11-20T07:25:05.836Z,83.10
2022-11-20T07:25:45.878Z,83.24
2022-11-20T07:26:26.857Z,83.34
2022-11-20T07:27:06.907Z,82.81
2022-11-20T07:27:46.878Z,83.22
2022-11-20T07:28:27.147Z,82.97
2022-11-20T07:29:06.859Z,82.63
2022-11-20T07:29:46.876Z,83.08
2022-11-20T07:30:26.875Z,83.12
2022-11-20T07:31:07.767Z,83.11
2022-11-20T07:31:47.834Z,83.32
2022-11-20T07:32:27.906Z,83.13
2022-11-20T07:33:07.849Z,83.17
2022-11-20T07:33:47.925Z,82.72
2022-11-20T07:34:27.828Z,82.93
2022-11-20T07:35:07.903Z,83.43
2022-11-20T07:35:48.823Z,83.25
2022-11-20T07:36:28.951Z,82.86
2022-11-20T07:37:10.490Z,83.21
2022-11-20T07:37:50.884Z,83.00
2022-11-20T07:38:30.858Z,83.51
2022-11-20T07:39:10.868Z,83.15
2022-11-20T07:39:50.833Z,83.17
2022-11-20T07:40:30.903Z,83.11
2022-11-20T07:41:10.847Z,83.25
2022-11-20T07:41:50.912Z,83.39
2022-11-20T07:42:30.817Z,83.51
2022-11-20T07:43:10.859Z,83.30
2022-11-20T07:43:51.862Z,83.40
2022-11-20T07:44:31.851Z,83.64
2022-11-20T07:45:12.806Z,83.33
2022-11-20T07:45:53.017Z,82.99
2022-11-20T07:46:32.796Z,83.26
2022-11-20T07:47:13.072Z,83.43
2022-11-20T07:47:52.829Z,83.53
2022-11-20T07:48:33.423Z,83.47
2022-11-20T07:49:13.875Z,82.87
2022-11-20T07:49:53.902Z,83.23
2022-11-20T07:50:33.801Z,83.23
2022-11-20T07:51:14.460Z,82.76
2022-11-20T07:52:04.202Z,83.17
2022-11-20T07:52:44.856Z,82.82
2022-11-20T07:53:27.814Z,82.18
2022-11-20T07:54:07.867Z,82.48
2022-11-20T07:54:51.888Z,82.66
2022-11-20T07:55:31.887Z,82.53
2022-11-20T07:56:12.818Z,82.78
2022-11-20T07:56:52.865Z,82.93
2022-11-20T07:57:33.795Z,82.77
2022-11-20T07:58:14.818Z,82.83
2022-11-20T07:58:54.804Z,82.53
2022-11-20T07:59:48.814Z,82.81
2022-11-20T08:00:29.846Z,82.34
2022-11-20T08:01:14.977Z,82.35
2022-11-20T08:01:54.813Z,82.25
2022-11-20T08:02:34.885Z,82.23
2022-11-20T08:03:18.104Z,82.26
2022-11-20T08:04:01.912Z,82.09
2022-11-20T08:04:41.790Z,82.05
2022-11-20T08:05:21.898Z,81.99
2022-11-20T08:06:01.816Z,81.80
2022-11-20T08:06:41.823Z,82.21
2022-11-20T08:07:21.866Z,81.78
2022-11-20T08:08:01.920Z,82.00
2022-11-20T08:08:43.241Z,82.30
2022-11-20T08:09:23.890Z,82.06
2022-11-20T08:10:03.775Z,82.21
2022-11-20T08:10:43.822Z,81.96
2022-11-20T08:11:43.819Z,81.88
2022-11-20T08:12:47.369Z,81.69
2022-11-20T08:13:46.788Z,81.47
2022-11-20T08:14:28.284Z,81.47
2022-11-20T08:15:13.111Z,81.51
2022-11-20T08:15:57.924Z,81.60
2022-11-20T08:16:37.773Z,81.06
2022-11-20T08:17:17.862Z,80.89
2022-11-20T08:18:15.416Z,81.13
2022-11-20T08:18:58.773Z,81.15
2022-11-20T08:19:32.917Z,81.07
2022-11-20T08:20:20.801Z,81.02
2022-11-20T08:20:54.864Z,80.80
2022-11-20T08:21:41.795Z,80.84
2022-11-20T08:22:16.963Z,81.61
2022-11-20T08:22:57.836Z,81.26
2022-11-20T08:23:38.943Z,81.18
2022-11-20T08:24:19.800Z,81.24
2022-11-20T08:25:00.031Z,80.85
2022-11-20T08:25:42.831Z,80.85
2022-11-20T08:26:23.409Z,80.58
2022-11-20T08:27:08.780Z,80.26
2022-11-20T08:27:48.860Z,80.70
2022-11-20T08:28:29.810Z,80.95
2022-11-20T08:29:10.867Z,80.56
2022-11-20T08:29:50.770Z,80.64
2022-11-20T08:30:30.833Z,80.64
2022-11-20T08:31:11.777Z,80.79
2022-11-20T08:31:52.844Z,80.47
2022-11-20T08:32:32.771Z,80.50
2022-11-20T08:33:16.342Z,79.96
2022-11-20T08:33:57.796Z,80.55
2022-11-20T08:34:37.837Z,80.28
2022-11-20T08:35:18.802Z,79.93
2022-11-20T08:35:58.958Z,79.97
2022-11-20T08:36:41.797Z,79.65
2022-11-20T08:37:22.915Z,80.28
2022-11-20T08:38:03.762Z,79.78
2022-11-20T08:38:43.813Z,79.95
2022-11-20T08:39:24.170Z,79.92
2022-11-20T08:40:04.833Z,79.85
2022-11-20T08:40:44.773Z,79.52
2022-11-20T08:41:24.803Z,79.31
2022-11-20T08:42:04.744Z,80.23
2022-11-20T08:42:44.937Z,79.71
2022-11-20T08:43:24.739Z,79.40
2022-11-20T08:44:10.069Z,80.00
2022-11-20T08:44:50.777Z,79.93
2022-11-20T08:45:34.305Z,79.98
2022-11-20T08:46:14.756Z,79.76
2022-11-20T08:46:54.815Z,79.92
2022-11-20T08:47:35.760Z,79.71
2022-11-20T08:48:16.363Z,80.33
2022-11-20T08:48:56.758Z,79.46
2022-11-20T08:49:36.808Z,79.60
2022-11-20T08:50:18.778Z,79.65
2022-11-20T08:50:58.759Z,79.28
2022-11-20T08:51:39.715Z,79.35
2022-11-20T08:52:19.786Z,79.68
2022-11-20T08:52:59.753Z,79.71
2022-11-20T08:53:39.933Z,79.70
2022-11-20T08:54:20.762Z,79.79
2022-11-20T08:55:14.764Z,80.14
2022-11-20T08:55:55.801Z,80.09
2022-11-20T08:56:35.784Z,80.26
2022-11-20T08:57:16.726Z,80.08
2022-11-20T08:57:56.792Z,80.26
2022-11-20T08:59:01.834Z,79.80
2022-11-20T09:00:04.596Z,79.99
2022-11-20T09:00:36.818Z,79.55
2022-11-20T09:01:17.786Z,79.88
2022-11-20T09:01:51.885Z,79.79
2022-11-20T09:03:00.745Z,80.03
2022-11-20T09:03:34.810Z,80.08
2022-11-20T09:04:21.746Z,79.83
2022-11-20T09:04:55.832Z,79.97
2022-11-20T09:05:42.740Z,79.75
2022-11-20T09:06:16.791Z,80.54
2022-11-20T09:06:58.790Z,79.91
2022-11-20T09:07:38.837Z,80.02
2022-11-20T09:08:18.748Z,79.61
2022-11-20T09:09:06.670Z,79.88
2022-11-20T09:10:03.678Z,79.45
2022-11-20T09:10:46.750Z,79.43
2022-11-20T09:11:26.722Z,79.30
2022-11-20T09:12:13.760Z,79.42
2022-11-20T09:12:47.768Z,79.55
2022-11-20T09:13:36.741Z,79.30
2022-11-20T09:14:10.769Z,79.42
2022-11-20T09:14:57.728Z,79.30
2022-11-20T09:15:32.750Z,78.88
2022-11-20T09:16:19.731Z,78.58